Flight Track Log - Related Links

Times and Time Zones

All times are in EDT time to prevent confusion due to time zone crossing. See the UPS2062 flight status page for this flight to view local times or setup timezone preferences in your user account.

Time Position Orientation Groundspeed Altitude Reporting Facility
EDT Latitude Longitude Course Direction KTS MPH feet Rate Location/Type
Wed 04:35:50 PM 38.2657 -85.8003 329° Northwest 279 321 4,300  Level FlightAware ADS-B
Wed 04:36:08 PM 38.2830 -85.8123 337° Northwest 292 336 5,100 2,791 Climbing FlightAware ADS-B
Wed 04:36:33 PM 38.3198 -85.8286 345° North 304 350 6,300 3,143 Climbing FlightAware ADS-B
Wed 04:36:50 PM 38.3460 -85.8377 344° North 306 352 7,300 3,086 Climbing FlightAware ADS-B
Wed 04:37:08 PM 38.3699 -85.8469 342° North 308 354 8,100 2,857 Climbing FlightAware ADS-B
Wed 04:37:32 PM 38.3956 -85.8577 342° North 316 364 9,300 2,769 Climbing FlightAware ADS-B
Wed 04:37:47 PM 38.4204 -85.8662 354° North 325 374 9,900 2,432 Climbing FlightAware ADS-B
Wed 04:38:09 PM 38.4569 -85.8632 11° North 342 394 10,800 1,698 Climbing FlightAware ADS-B
Wed 04:38:40 PM 38.5092 -85.8510 10° North 390 449 11,400 1,941 Climbing FlightAware ADS-B
Wed 04:39:17 PM 38.5704 -85.8109 28° Northeast 402 463 13,000 2,873 Climbing FlightAware ADS-B
Wed 04:39:51 PM 38.6238 -85.7635 36° Northeast 423 487 14,800 3,465 Climbing FlightAware ADS-B
Wed 04:40:28 PM 38.6797 -85.7084 39° Northeast 435 501 17,100 2,975 Climbing FlightAware ADS-B (KCVG)
Wed 04:41:52 PM 38.8177 -85.5682 38° Northeast 465 535 20,800 4,719 Climbing FlightAware ADS-B (KCVG)
Wed 04:41:57 PM 38.8269 -85.5589 38° Northeast 505 581 24,100 2,391 Climbing FlightAware ADS-B (KCVG)
Wed 04:44:05 PM 39.0498 -85.3349 38° Northeast 504 580 26,100 1,063 Climbing FlightAware ADS-B (KCVG)
Wed 04:44:35 PM 39.0972 -85.2869 38° Northeast 501 577 26,900 1,761 Climbing Indianapolis Center
Wed 04:45:37 PM 39.1967 -85.1614 44° Northeast 502 578 28,800 1,872 Climbing Indianapolis Center
Wed 04:46:40 PM 39.2983 -85.0364 44° Northeast 510 587 30,800 1,968 Climbing Indianapolis Center
Wed 04:47:42 PM 39.4292 -84.8850 42° Northeast 508 585 32,900 1,065 Climbing Indianapolis Center
Wed 04:48:44 PM 39.5153 -84.7797 43° Northeast 513 590 33,000 48 Climbing Indianapolis Center
Wed 04:49:46 PM 39.6311 -84.6175 47° Northeast 512 589 33,000  Level Indianapolis Center
Wed 04:50:48 PM 39.7325 -84.4786 46° Northeast 512 589 33,000  Level Indianapolis Center
Wed 04:51:50 PM 39.8283 -84.3483 46° Northeast 513 590 33,000  Level Indianapolis Center
Wed 04:52:53 PM 39.9283 -84.2119 46° Northeast 515 593 33,000  Level Indianapolis Center
Wed 04:53:55 PM 40.0281 -84.0747 46° Northeast 516 594 33,000  Level Indianapolis Center
Wed 04:54:57 PM 40.1278 -83.9369 47° Northeast 517 595 33,000  Level Indianapolis Center
Wed 04:55:59 PM 40.2269 -83.7983 47° Northeast 517 595 33,000  Level Indianapolis Center
Wed 04:57:01 PM 40.3447 -83.6319 47° Northeast 516 594 33,000  Level Indianapolis Center
Wed 04:58:03 PM 40.4450 -83.4894 47° Northeast 515 593 33,000  Level Indianapolis Center
Wed 04:59:05 PM 40.5383 -83.3564 47° Northeast 513 590 33,000  Level Indianapolis Center
Wed 05:00:07 PM 40.6347 -83.2183 47° Northeast 512 589 33,000  Level Indianapolis Center
Wed 05:00:43 PM 40.6956 -83.1306 48° Northeast 512 589 33,000  Level Cleveland Center
Wed 05:01:45 PM 40.7706 -82.9806 57° Northeast 511 588 33,000  Level Cleveland Center
Wed 05:02:47 PM 40.8247 -82.8025 68° East 508 585 33,000  Level Cleveland Center
Wed 05:03:50 PM 40.8817 -82.6050 69° East 507 583 33,000  Level Cleveland Center
Wed 05:04:52 PM 40.9308 -82.4308 69° East 505 581 33,000  Level Cleveland Center
Wed 05:05:54 PM 40.9833 -82.2597 68° East 503 579 33,000  Level Cleveland Center
Wed 05:06:56 PM 41.0358 -82.0897 68° East 499 574 33,000  Level Cleveland Center
Wed 05:07:58 PM 41.0875 -81.9203 68° East 496 571 33,000  Level Cleveland Center
Wed 05:09:00 PM 41.1258 -81.7228 75° East 488 562 33,000  Level Cleveland Center
Wed 05:10:02 PM 41.1514 -81.5489 79° East 485 558 33,000  Level Cleveland Center
Wed 05:15:56 PM 41.3605 -80.5303 68° East 485 558 33,000  Level FlightAware ADS-B (EGXP / SQZ)
Wed 05:17:10 PM 41.4224 -80.3254 71° East 483 556 33,000  Level FlightAware ADS-B (CYYZ)
Wed 05:18:00 PM 41.4382 -80.2326 78° East 480 552 33,000  Level FlightAware ADS-B (CYYZ)
Wed 05:18:30 PM 41.4596 -80.0934 78° East 481 554 33,000  Level FlightAware ADS-B (CYYZ)
Wed 05:19:01 PM 41.4734 -80.0054 78° East 481 554 33,000  Level FlightAware ADS-B (CYYZ)
Wed 05:19:35 PM 41.4924 -79.9097 71° East 483 556 33,000  Level FlightAware ADS-B (CYYZ)
Wed 05:20:10 PM 41.5205 -79.8160 64° Northeast 484 557 33,000  Level FlightAware ADS-B (CYYZ)
Wed 05:20:41 PM 41.5511 -79.7277 65° Northeast 483 556 33,000  Level FlightAware ADS-B (CYYZ)
Wed 05:20:47 PM 41.5502 -79.7302 66° East 483 556 33,000  Level FlightAware ADS-B (EPLB / LUZ)
Wed 05:21:11 PM 41.5788 -79.6463 65° Northeast 482 555 33,000  Level FlightAware ADS-B (CYYZ)
Wed 05:21:26 PM 41.5930 -79.6049 65° Northeast 482 555 33,000  Level FlightAware ADS-B (EPLB / LUZ)
Wed 05:21:40 PM 41.6060 -79.5674 65° Northeast 481 554 33,000  Level FlightAware ADS-B (CYYZ)
Wed 05:22:11 PM 41.6339 -79.4861 65° Northeast 482 555 33,000  Level FlightAware ADS-B (CYYZ)
Wed 05:22:12 PM 41.6354 -79.4819 66° East 482 555 33,000  Level FlightAware ADS-B (EPLB / LUZ)
Wed 05:22:41 PM 41.6625 -79.4032 65° Northeast 482 555 33,000  Level FlightAware ADS-B (CYYZ)
Wed 05:23:10 PM 41.6891 -79.3263 65° Northeast 483 556 33,000  Level FlightAware ADS-B (CYYZ)
Wed 05:23:40 PM 41.7167 -79.2456 65° Northeast 483 556 33,000  Level FlightAware ADS-B (CYYZ)
Wed 05:24:11 PM 41.7457 -79.1612 65° Northeast 483 556 33,000  Level FlightAware ADS-B (CYYZ)
Wed 05:24:35 PM 41.7265 -79.2174 66° East 485 558 33,000  Level FlightAware ADS-B (EPLB / LUZ)
Wed 05:24:41 PM 41.7728 -79.0817 65° Northeast 483 556 33,000  Level FlightAware ADS-B (CYYZ)
Wed 05:25:11 PM 41.8021 -78.9958 65° Northeast 484 557 33,000  Level FlightAware ADS-B (CYYZ)
Wed 05:25:41 PM 41.8279 -78.9194 65° Northeast 484 557 33,000  Level FlightAware ADS-B (CYYZ)
Wed 05:26:10 PM 41.8569 -78.8330 66° East 484 557 33,000  Level FlightAware ADS-B (CYYZ)
Wed 05:26:41 PM 41.8843 -78.7506 65° Northeast 483 556 33,000  Level FlightAware ADS-B (CYYZ)
Wed 05:27:11 PM 41.9106 -78.6711 66° East 483 556 33,000  Level FlightAware ADS-B (CYYZ)
Wed 05:27:40 PM 41.9385 -78.5866 66° East 482 555 33,000  Level FlightAware ADS-B (CYYZ)
Wed 05:28:11 PM 41.9632 -78.5122 66° East 481 554 33,000  Level FlightAware ADS-B (CYYZ)
Wed 05:28:39 PM 41.9873 -78.4384 66° East 481 554 33,000  Level FlightAware ADS-B (CYYZ)
Wed 05:29:10 PM 42.0176 -78.3461 66° East 481 554 33,000  Level FlightAware ADS-B (CYYZ)
Wed 05:29:41 PM 42.0455 -78.2608 66° East 481 554 33,000  Level FlightAware ADS-B (CYYZ)
Wed 05:30:10 PM 42.0733 -78.1759 66° East 481 554 33,000  Level FlightAware ADS-B (CYYZ)
Wed 05:30:41 PM 42.0996 -78.0950 66° East 482 555 33,000  Level FlightAware ADS-B (CYYZ)
Wed 05:31:00 PM 42.1180 -78.0390 66° East 483 556 33,000  Level FlightAware ADS-B
Wed 05:31:11 PM 42.1267 -78.0109 66° East 481 554 33,000  Level FlightAware ADS-B (CYYZ)
Wed 05:31:36 PM 42.1500 -77.9400 66° East 482 555 33,000  Level FlightAware ADS-B
Wed 05:31:41 PM 42.1523 -77.9317 66° East 481 554 33,000  Level FlightAware ADS-B (CYYZ)
Wed 05:32:07 PM 42.1760 -77.8580 66° East 482 555 33,000  Level FlightAware ADS-B
Wed 05:32:11 PM 42.1792 -77.8483 66° East 481 554 33,000  Level FlightAware ADS-B (CYYZ)
Wed 05:32:37 PM 42.2030 -77.7760 66° East 481 554 33,000  Level FlightAware ADS-B
Wed 05:32:40 PM 42.2009 -77.7810 66° East 480 552 33,000  Level FlightAware ADS-B (CYYZ)
Wed 05:33:10 PM 42.2322 -77.6829 66° East 479 551 33,000  Level FlightAware ADS-B (CYYZ)
Wed 05:33:13 PM 42.2340 -77.6770 66° East 481 554 33,000  Level FlightAware ADS-B
Wed 05:33:40 PM 42.2578 -77.6024 66° East 478 550 33,000  Level FlightAware ADS-B (CYYZ)
Wed 05:33:49 PM 42.2660 -77.5780 66° East 479 551 33,000  Level FlightAware ADS-B
Wed 05:34:10 PM 42.2830 -77.5233 66° East 478 550 33,000  Level FlightAware ADS-B (CYYZ)
Wed 05:34:41 PM 42.3107 -77.4360 66° East 477 549 33,000  Level FlightAware ADS-B (CYYZ)
Wed 05:34:42 PM 42.3120 -77.4320 67° East 479 551 33,000  Level FlightAware ADS-B
Wed 05:35:10 PM 42.3339 -77.3627 66° East 475 547 33,000  Level FlightAware ADS-B (CYYZ)
Wed 05:35:12 PM 42.3380 -77.3480 66° East 477 549 33,000  Level FlightAware ADS-B
Wed 05:35:40 PM 42.3604 -77.2781 66° East 475 547 33,000  Level FlightAware ADS-B (CYYZ)
Wed 05:35:48 PM 42.3690 -77.2500 66° East 477 549 33,000  Level FlightAware ADS-B
Wed 05:36:10 PM 42.3883 -77.1898 67° East 476 548 33,000  Level FlightAware ADS-B (CYYZ)
Wed 05:36:24 PM 42.4000 -77.1520 67° East 477 549 33,000  Level FlightAware ADS-B
Wed 05:37:00 PM 42.4290 -77.0560 71° East 476 548 33,000  Level FlightAware ADS-B
Wed 05:37:36 PM 42.4480 -76.9500 80° East 473 544 33,000  Level FlightAware ADS-B
Wed 05:37:45 PM 42.4507 -76.9267 80° East 472 543 33,000  Level FlightAware ADS-B (CYYZ)
Wed 05:38:12 PM 42.4600 -76.8450 81° East 473 544 33,000  Level FlightAware ADS-B
Wed 05:38:16 PM 42.4575 -76.8678 81° East 471 542 33,000  Level FlightAware ADS-B (CYYZ)
Wed 05:38:42 PM 42.4690 -76.7570 81° East 473 544 33,000  Level FlightAware ADS-B
Wed 05:38:45 PM 42.4697 -76.7528 82° East 472 543 33,000  Level FlightAware ADS-B (CYYZ)
Wed 05:39:16 PM 42.4790 -76.6620 82° East 471 542 33,000  Level FlightAware ADS-B (CYYZ)
Wed 05:39:45 PM 42.4884 -76.5725 81° East 471 542 33,000  Level FlightAware ADS-B (CYYZ)
Wed 05:40:15 PM 42.4974 -76.4870 81° East 470 541 33,000  Level FlightAware ADS-B (CYYZ)
Wed 05:40:19 PM 42.4990 -76.4760 81° East 471 542 33,000  Level FlightAware ADS-B
Wed 05:40:45 PM 42.5069 -76.3971 81° East 471 542 33,000  Level FlightAware ADS-B (CYYZ)
Wed 05:40:48 PM 42.5080 -76.3890 81° East 472 543 33,000  Level FlightAware ADS-B
Wed 05:41:16 PM 42.5159 -76.3101 81° East 471 542 33,000  Level FlightAware ADS-B (CYYZ)
Wed 05:41:24 PM 42.5180 -76.2860 81° East 472 543 33,000  Level FlightAware ADS-B
Wed 05:41:46 PM 42.5249 -76.2238 81° East 471 542 33,000  Level FlightAware ADS-B (CYYZ)
Wed 05:42:00 PM 42.5290 -76.1800 81° East 473 544 33,000  Level FlightAware ADS-B
Wed 05:42:15 PM 42.5338 -76.1366 82° East 472 543 33,000  Level FlightAware ADS-B (CYYZ)
Wed 05:42:31 PM 42.5390 -76.0910 82° East 471 542 33,000 -343 Level FlightAware ADS-B
Wed 05:42:50 PM 42.5436 -76.0403 82° East 467 537 32,800 -1,000 Descending FlightAware ADS-B (CYYZ)
Wed 05:43:07 PM 42.5490 -75.9860 82° East 468 539 32,400 -1,200 Descending FlightAware ADS-B
Wed 05:43:30 PM 42.5544 -75.9212 83° East 467 537 32,000 -1,019 Descending FlightAware ADS-B (CYYZ)
Wed 05:44:00 PM 42.5510 -75.8320 98° East 460 529 31,500 -1,091 Descending FlightAware ADS-B
Wed 05:44:36 PM 42.5380 -75.7320 100° East 461 531 30,800 -1,250 Descending FlightAware ADS-B
Wed 05:45:12 PM 42.5230 -75.6280 101° East 462 532 30,000 -1,364 Descending FlightAware ADS-B
Wed 05:45:42 PM 42.5100 -75.5410 101° East 465 535 29,300 -1,400 Descending FlightAware ADS-B
Wed 05:46:42 PM 42.4850 -75.3720 101° East 471 542 27,900 -1,313 Descending FlightAware ADS-B
Wed 05:47:18 PM 42.4720 -75.2700 97° East 474 545 27,200 -1,273 Descending FlightAware ADS-B
Wed 05:48:21 PM 42.4689 -75.0875 97° East 474 545 25,800 -1,056 Descending Cleveland Center
Wed 05:49:23 PM 42.4731 -74.9089 88° East 475 547 25,000 -1,104 Descending Cleveland Center
Wed 05:50:26 PM 42.4767 -74.7350 88° East 477 549 23,500 -1,597 Descending Boston Center
Wed 05:51:27 PM 42.4797 -74.5614 89° East 455 524 21,700 -1,645 Descending Boston Center
Wed 05:52:30 PM 42.4825 -74.3878 89° East 426 490 20,100 -1,258 Descending Boston Center
Wed 05:53:31 PM 42.4847 -74.2308 89° East 417 480 19,100 -1,041 Descending Boston Center
Wed 05:54:31 PM 42.4772 -74.0578 93° East 411 473 18,000 -532 Descending Boston Center
Wed 05:55:35 PM 42.4464 -73.9108 106° East 411 473 18,000 -145 Level Boston Center
Wed 05:56:35 PM 42.4133 -73.7542 106° East 408 470 17,700 -923 Descending Boston Center
Wed 05:57:45 PM 42.3778 -73.5933 107° East 382 440 16,000 -1,742 Descending Boston Center
Wed 05:58:39 PM 42.3508 -73.4658 106° East 383 441 14,100 -1,579 Descending Boston Center
Wed 05:59:20 PM 42.3297 -73.3742 107° East 366 421 13,500 -871 Descending Boston Center
Wed 05:59:41 PM 42.3222 -73.3364 105° East 370 426 13,200 -1,333 Descending Boston Center
Wed 06:00:41 PM 42.2947 -73.2089 106° East 359 413 11,700 -1,412 Descending Boston Center
Wed 06:01:23 PM 42.2500 -73.1408 132° Southeast 322 371 10,800 -1,031 Descending Boston Center
Wed 06:01:45 PM 42.2247 -73.1225 152° Southeast 323 372 10,600 -787 Descending Boston Center
Wed 06:02:24 PM 42.1739 -73.0894 154° Southeast 294 338 10,000 -984 Descending Boston Center
Wed 06:02:46 PM 42.1511 -73.0725 151° Southeast 299 344 9,600 -1,279 Descending Boston Center
Wed 06:03:25 PM 42.1000 -73.0392 154° Southeast 289 333 8,700 -1,400 Descending Boston Center
Wed 06:03:46 PM 42.0744 -73.0192 150° Southeast 292 336 8,200 -1,082 Descending Boston Center
Wed 06:04:26 PM 42.0633 -72.9533 103° East 293 337 7,600 -1,031 Descending Boston Center
Wed 06:04:50 PM 42.0711 -72.9158 74° East 290 334 7,100 -1,254 Descending Boston Center
Wed 06:05:33 PM 42.0867 -72.8372 75° East 289 333 6,200 -1,180 Descending Boston Center
Wed 06:05:51 PM 42.0936 -72.8111 70° East 291 335 5,900 -982 Descending Boston Center
Wed 06:06:28 PM 42.1072 -72.7461 74° East 278 320 5,300 -787 Descending Boston Center
Wed 06:06:52 PM 42.1147 -72.7108 74° East 279 321 5,100 -806 Descending Boston Center
Wed 06:07:35 PM 42.1086 -72.6422 97° East 244 281 4,400 -885 Descending Boston Center
Wed 06:07:53 PM 42.1044 -72.6136 101° East 242 278 4,200 -700 Descending Boston Center
Wed 06:08:35 PM 42.0928 -72.5583 106° East 213 245 3,700 -563 Descending Boston Center
Wed 06:08:57 PM 42.0833 -72.5406 126° Southeast 214 246 3,600 -787 Descending Boston Center
Wed 06:09:36 PM 42.0506 -72.5433 184° South 173 199 2,900 -885 Descending Boston Center
Wed 06:09:58 PM 42.0389 -72.5553 217° Southwest 175 201 2,700 -885 Descending Boston Center
Wed 06:10:37 PM 42.0156 -72.5886 227° Southwest 156 180 2,000 -984 Descending Boston Center
Wed 06:10:59 PM 42.0044 -72.6019 222° Southwest 165 190 1,700 -787 Descending Boston Center
Wed 06:11:38 PM 41.9864 -72.6272 226° Southwest 134 154 1,200 -700 Descending Boston Center
Wed 06:11:59 PM 41.9767 -72.6383 220° Southwest 143 165 1,000 -764 Descending Boston Center
Wed 06:12:33 PM 41.9606 -72.6586 223° Southwest 136 157 500 -750 Descending Boston Center
Wed 06:13:03 PM 41.9497 -72.6733 225° Southwest 138 159 200 -600 Descending Boston Center

Login

Don't have an account? Register now (free) for customized features, flight alerts, and more!